Time;durP1;ratioP1;P1;durP2;ratioP2;P2;SDS_P1;SDS_P2;PMS_P1;PMS_P2;Temp;Humidity;BMP_temperature;BMP_pressure;BME280_temperature;BME280_humidity;BME280_pressure;Samples;Min_cycle;Max_cycle;Signal;HPM_P1;HPM_P2
2021/11/06 00:10:13;;;;;;;30.00;21.17;;;231.00;2252.80;;;;;;4832323;24;20071;-85
2021/11/06 00:34:37;;;;;;;29.60;19.42;;;230.90;2252.80;;;;;;4838146;24;20071;-84
2021/11/06 00:37:05;;;;;;;23.48;18.45;;;231.00;2252.80;;;;;;4787851;30;20039;-86
2021/11/06 00:39:31;;;;;;;24.58;17.20;;;231.00;2252.80;;;;;;4772914;30;20063;-87
2021/11/06 00:41:57;;;;;;;24.83;18.48;;;231.10;2252.80;;;;;;4772968;30;20073;-87
2021/11/06 00:44:23;;;;;;;23.15;19.42;;;231.10;2252.80;;;;;;4772904;30;20036;-85
2021/11/06 00:46:50;;;;;;;24.30;19.02;;;231.10;2252.80;;;;;;4788846;30;20027;-87
2021/11/06 00:49:17;;;;;;;23.73;19.00;;;231.20;2252.80;;;;;;4772795;30;20130;-86
2021/11/06 00:51:43;;;;;;;28.05;21.17;;;231.10;2252.80;;;;;;4772753;30;20035;-86
2021/11/06 00:54:09;;;;;;;28.70;21.63;;;231.10;2252.80;;;;;;4772794;30;20035;-86
2021/11/06 00:56:35;;;;;;;29.67;21.83;;;231.10;2252.80;;;;;;4772887;30;20379;-87
2021/11/06 00:59:01;;;;;;;29.02;22.27;;;231.10;2252.80;;;;;;4787697;30;20031;-87
2021/11/06 01:01:27;;;;;;;27.08;20.90;;;231.10;2252.80;;;;;;4787613;30;20039;-88
2021/11/06 01:03:54;;;;;;;26.15;21.35;;;231.20;2252.80;;;;;;4772690;30;20043;-88
2021/11/06 01:06:20;;;;;;;30.15;21.55;;;231.20;2252.80;;;;;;4772786;30;20088;-87
2021/11/06 01:08:46;;;;;;;33.92;22.15;;;231.20;2252.80;;;;;;4772809;30;20031;-87
2021/11/06 01:11:12;;;;;;;27.58;20.48;;;231.20;2252.80;;;;;;4772983;30;20481;-88
2021/11/06 01:13:38;;;;;;;32.92;22.65;;;231.20;2252.80;;;;;;4772815;30;20031;-87
2021/11/06 01:16:04;;;;;;;31.42;21.85;;;231.20;2252.80;;;;;;4772986;30;20063;-86
2021/11/06 01:18:30;;;;;;;30.08;21.75;;;231.20;2252.80;;;;;;4772761;30;20065;-87
2021/11/06 01:20:56;;;;;;;31.20;22.48;;;231.30;2252.80;;;;;;4774517;30;20039;-86
2021/11/06 01:23:22;;;;;;;30.95;23.17;;;231.20;2252.80;;;;;;4775933;30;20121;-87
2021/11/06 01:25:48;;;;;;;33.88;22.83;;;231.30;2252.80;;;;;;4775805;30;20062;-86
2021/11/06 01:28:15;;;;;;;31.35;23.25;;;231.30;2252.80;;;;;;4775743;30;20477;-85
2021/11/06 01:30:41;;;;;;;29.75;22.13;;;231.30;2252.80;;;;;;4775626;30;20082;-87
2021/11/06 01:33:08;;;;;;;27.65;21.55;;;231.20;2252.80;;;;;;4775282;30;20051;-87
2021/11/06 01:35:34;;;;;;;26.30;20.58;;;231.30;2252.80;;;;;;4775658;30;20035;-89
2021/11/06 01:38:00;;;;;;;27.92;21.25;;;231.30;2252.80;;;;;;4790512;30;20485;-88
2021/11/06 01:40:27;;;;;;;28.02;22.10;;;231.30;2252.80;;;;;;4775654;30;20428;-87
2021/11/06 01:42:54;;;;;;;30.65;20.30;;;231.30;2252.80;;;;;;4775685;30;20058;-88
2021/11/06 01:45:20;;;;;;;32.13;20.55;;;231.30;2252.80;;;;;;4791129;30;20105;-87
2021/11/06 01:47:47;;;;;;;28.02;21.45;;;231.30;2252.80;;;;;;4775352;30;20043;-87
2021/11/06 01:50:14;;;;;;;30.00;21.73;;;231.30;2252.80;;;;;;4775315;30;20550;-86
2021/11/06 01:52:41;;;;;;;33.58;21.38;;;256.20;2252.80;;;;;;4775431;30;20066;-86
2021/11/06 01:55:07;;;;;;;26.83;21.00;;;231.30;2252.80;;;;;;4775490;30;20031;-87
2021/11/06 01:57:34;;;;;;;24.48;20.67;;;231.30;2252.80;;;;;;4775527;30;20034;-87
2021/11/06 02:00:01;;;;;;;29.17;20.67;;;231.30;2252.80;;;;;;4776110;30;20038;-88
2021/11/06 02:02:29;;;;;;;23.83;19.80;;;231.30;2252.80;;;;;;4775068;30;20185;-88
2021/11/06 02:05:26;;;;;;;26.25;20.23;;;231.20;2252.80;;;;;;4775055;30;20031;-90
2021/11/06 02:07:53;;;;;;;24.88;18.13;;;231.20;2252.80;;;;;;4791363;30;20036;-87
2021/11/06 02:10:20;;;;;;;24.65;18.58;;;231.20;2252.80;;;;;;4775029;30;20042;-87
2021/11/06 02:12:46;;;;;;;26.15;19.98;;;231.20;2252.80;;;;;;4775110;30;20031;-86
2021/11/06 02:18:27;;;;;;;25.55;19.50;;;231.10;2252.80;;;;;;4792442;30;20058;-88
2021/11/06 02:26:54;;;;;;;24.85;19.42;;;231.10;2252.80;;;;;;4818947;24;20055;-87
2021/11/06 02:38:13;;;;;;;22.98;17.27;;;231.10;2252.80;;;;;;4847106;24;20239;-87
2021/11/06 02:43:23;;;;;;;26.40;20.05;;;231.10;2252.80;;;;;;4811875;24;20063;-86
2021/11/06 02:48:40;;;;;;;26.38;19.95;;;231.20;2252.80;;;;;;4790832;30;20515;-87
2021/11/06 02:51:06;;;;;;;23.80;19.13;;;231.20;2252.80;;;;;;4774392;30;20043;-86
2021/11/06 02:53:32;;;;;;;25.85;21.05;;;231.20;2252.80;;;;;;4774181;30;20047;-87
2021/11/06 02:55:58;;;;;;;26.27;20.88;;;231.20;2252.80;;;;;;4774412;30;20031;-88
2021/11/06 02:58:24;;;;;;;26.90;19.55;;;231.20;2252.80;;;;;;4774168;30;20032;-89
2021/11/06 03:00:50;;;;;;;25.67;18.95;;;231.30;2252.80;;;;;;4774451;30;20051;-88
2021/11/06 03:03:16;;;;;;;22.65;16.42;;;231.30;2252.80;;;;;;4774151;30;20074;-89
2021/11/06 03:05:41;;;;;;;23.13;17.27;;;231.30;2252.80;;;;;;4774490;30;20447;-86
2021/11/06 03:08:07;;;;;;;22.13;17.58;;;231.30;2252.80;;;;;;4774083;30;20042;-88
2021/11/06 03:10:33;;;;;;;22.42;17.23;;;231.30;2252.80;;;;;;4773823;30;20047;-88
2021/11/06 03:13:01;;;;;;;22.85;18.55;;;256.00;2252.80;;;;;;4784866;29;20027;-88
2021/11/06 03:15:27;;;;;;;22.58;17.88;;;256.00;2252.80;;;;;;4792028;29;20039;-88
2021/11/06 03:17:53;;;;;;;23.42;18.88;;;256.00;2252.80;;;;;;4807262;29;20484;-88
2021/11/06 03:20:20;;;;;;;24.40;18.25;;;231.30;2252.80;;;;;;4791859;29;20035;-88
2021/11/06 03:22:46;;;;;;;21.40;17.27;;;231.30;2252.80;;;;;;4792896;29;20037;-86
2021/11/06 03:25:13;;;;;;;24.20;17.23;;;231.30;2252.80;;;;;;4792118;29;20031;-87
2021/11/06 03:27:39;;;;;;;25.63;17.52;;;231.30;2252.80;;;;;;4791716;29;20036;-86
2021/11/06 03:30:07;;;;;;;20.35;16.05;;;256.00;2252.80;;;;;;4791801;29;20034;-88
2021/11/06 03:32:33;;;;;;;21.38;16.85;;;256.00;2252.80;;;;;;4791872;29;20034;-89
2021/11/06 03:34:59;;;;;;;20.15;16.77;;;256.00;2252.80;;;;;;4788491;29;20046;-87
2021/11/06 03:37:26;;;;;;;20.90;15.70;;;256.00;2252.80;;;;;;4788880;30;20067;-87
2021/11/06 03:39:52;;;;;;;18.90;15.45;;;256.10;2252.80;;;;;;4790648;29;20035;-88
2021/11/06 03:42:18;;;;;;;20.13;16.42;;;256.00;2252.80;;;;;;4791206;29;20547;-88
2021/11/06 03:44:44;;;;;;;20.27;16.25;;;256.00;2252.80;;;;;;4791136;29;20026;-87
2021/11/06 03:47:10;;;;;;;19.90;15.48;;;256.00;2252.80;;;;;;4791365;29;20118;-88
2021/11/06 03:49:36;;;;;;;22.98;15.57;;;256.00;2252.80;;;;;;4791206;29;20031;-88
2021/11/06 03:52:02;;;;;;;17.92;15.27;;;231.30;2252.80;;;;;;4791394;29;20101;-88
2021/11/06 03:54:28;;;;;;;18.80;14.50;;;256.00;2252.80;;;;;;4791290;29;20095;-87
2021/11/06 03:56:54;;;;;;;19.77;15.50;;;256.10;2252.80;;;;;;4791220;29;20484;-88
2021/11/06 03:59:19;;;;;;;25.52;15.93;;;256.00;2252.80;;;;;;4791389;29;20031;-88
2021/11/06 04:01:45;;;;;;;19.90;14.98;;;256.00;2252.80;;;;;;4791088;29;20489;-88
2021/11/06 04:04:11;;;;;;;21.48;15.52;;;256.00;2252.80;;;;;;4791248;29;20030;-86
2021/11/06 04:06:37;;;;;;;21.13;15.30;;;256.00;2252.80;;;;;;4791611;29;20120;-87
2021/11/06 04:09:05;;;;;;;18.65;14.77;;;256.10;2252.80;;;;;;4791314;29;20038;-89
2021/11/06 04:11:31;;;;;;;18.13;14.93;;;256.10;2252.80;;;;;;4791450;29;20499;-87
2021/11/06 04:13:57;;;;;;;16.17;14.27;;;256.10;2252.80;;;;;;4791166;29;20045;-86
2021/11/06 04:16:22;;;;;;;17.40;14.63;;;256.10;2252.80;;;;;;4791136;29;20042;-88
2021/11/06 04:18:48;;;;;;;17.38;14.07;;;256.00;2252.80;;;;;;4790943;29;20035;-89
2021/11/06 04:21:14;;;;;;;20.05;14.73;;;256.00;2252.80;;;;;;4791121;29;20039;-86
2021/11/06 04:23:40;;;;;;;15.57;13.65;;;256.10;2252.80;;;;;;4791339;29;20031;-89
2021/11/06 04:26:07;;;;;;;19.13;14.13;;;256.10;2252.80;;;;;;4791277;29;20046;-88
2021/11/06 04:28:33;;;;;;;18.52;14.40;;;256.10;2252.80;;;;;;4791011;29;20114;-88
2021/11/06 04:30:59;;;;;;;18.00;13.93;;;256.00;2252.80;;;;;;4790992;29;20141;-85
2021/11/06 04:33:24;;;;;;;17.38;13.93;;;256.00;2252.80;;;;;;4790931;29;20035;-87
2021/11/06 04:35:50;;;;;;;17.00;14.52;;;231.30;2252.80;;;;;;4790937;29;20039;-87
2021/11/06 05:38:21;;;;;;;23.40;16.08;;;231.00;2252.80;;;;;;4864755;24;20056;-86
2021/11/06 05:40:47;;;;;;;22.45;16.05;;;231.10;2252.80;;;;;;4793619;29;20039;-87
2021/11/06 05:46:21;;;;;;;21.55;17.10;;;231.10;2252.80;;;;;;4812243;29;20038;-85
2021/11/06 05:48:46;;;;;;;26.77;18.52;;;231.10;2252.80;;;;;;4793437;29;20042;-87
2021/11/06 05:51:12;;;;;;;22.20;17.13;;;231.20;2252.80;;;;;;4793238;29;20043;-88
2021/11/06 05:53:38;;;;;;;25.63;19.88;;;231.20;2252.80;;;;;;4793130;29;20031;-87
2021/11/06 05:56:04;;;;;;;29.60;21.98;;;231.20;2252.80;;;;;;4793259;29;20085;-88
2021/11/06 05:58:30;;;;;;;25.33;18.58;;;231.30;2252.80;;;;;;4793333;29;20034;-88
2021/11/06 06:00:56;;;;;;;26.85;19.80;;;231.20;2252.80;;;;;;4793102;29;20027;-87
2021/11/06 06:03:22;;;;;;;23.85;18.60;;;231.30;2252.80;;;;;;4793241;29;20035;-89
2021/11/06 06:05:48;;;;;;;23.33;16.92;;;231.30;2252.80;;;;;;4793060;29;20080;-88
2021/11/06 06:08:14;;;;;;;23.73;18.55;;;231.30;2252.80;;;;;;4792961;29;20027;-86
2021/11/06 06:10:40;;;;;;;22.30;16.75;;;231.30;2252.80;;;;;;4793064;29;20049;-85
2021/11/06 06:13:06;;;;;;;21.77;17.02;;;231.30;2252.80;;;;;;4793213;29;20035;-87
2021/11/06 06:15:32;;;;;;;20.58;16.88;;;231.30;2252.80;;;;;;4803744;24;20045;-87
2021/11/06 06:17:57;;;;;;;19.65;16.02;;;231.30;2252.80;;;;;;4792852;29;20031;-86
2021/11/06 06:20:23;;;;;;;19.92;15.10;;;231.30;2252.80;;;;;;4792562;29;20117;-85
2021/11/06 06:22:50;;;;;;;18.88;15.15;;;231.30;2252.80;;;;;;4792157;29;20031;-88
2021/11/06 06:25:16;;;;;;;19.50;14.65;;;231.30;2252.80;;;;;;4792708;29;20034;-86
2021/11/06 06:27:42;;;;;;;25.27;20.85;;;231.30;2252.80;;;;;;4792370;29;20122;-86
2021/11/06 06:30:11;;;;;;;31.70;20.98;;;231.30;2252.80;;;;;;4792281;29;20047;-87
2021/11/06 06:32:38;;;;;;;29.33;20.27;;;231.20;2252.80;;;;;;4808452;29;20062;-89
2021/11/06 06:35:06;;;;;;;28.42;18.70;;;231.20;2252.80;;;;;;4792305;29;20062;-85
2021/11/06 06:37:32;;;;;;;21.95;16.15;;;231.10;2252.80;;;;;;4792170;29;20038;-87
2021/11/06 06:39:57;;;;;;;26.20;16.33;;;231.10;2252.80;;;;;;4792270;29;20031;-87
2021/11/06 06:42:24;;;;;;;21.27;14.63;;;231.10;2252.80;;;;;;4792097;29;20026;-87
2021/11/06 06:44:51;;;;;;;19.52;15.48;;;231.10;2252.80;;;;;;4808344;29;20167;-86
2021/11/06 06:47:17;;;;;;;24.60;15.77;;;231.10;2252.80;;;;;;4792380;29;20066;-85
2021/11/06 06:49:46;;;;;;;20.90;15.30;;;231.20;2252.80;;;;;;4792105;29;20438;-85
2021/11/06 06:52:13;;;;;;;18.52;14.38;;;231.20;2252.80;;;;;;4791944;29;20041;-86
2021/11/06 06:54:39;;;;;;;22.65;15.68;;;231.20;2252.80;;;;;;4791813;29;20041;-90
2021/11/06 06:57:05;;;;;;;18.65;14.40;;;231.20;2252.80;;;;;;4796247;29;20037;-88
2021/11/06 06:59:35;;;;;;;18.52;13.85;;;231.20;2252.80;;;;;;4791782;29;20065;-89
2021/11/06 07:02:05;;;;;;;19.30;14.00;;;231.20;2252.80;;;;;;4791356;29;20039;-87
2021/11/06 07:04:32;;;;;;;20.98;14.70;;;231.30;2252.80;;;;;;4791528;29;20031;-87
2021/11/06 07:06:58;;;;;;;101.93;35.35;;;231.30;2252.80;;;;;;4807781;29;20038;-87
2021/11/06 07:09:25;;;;;;;126.07;46.67;;;231.30;2252.80;;;;;;4811822;29;20050;-86
2021/11/06 07:11:52;;;;;;;43.33;22.13;;;231.30;2252.80;;;;;;4807753;29;20030;-87
2021/11/06 07:14:20;;;;;;;24.27;16.63;;;231.30;2252.80;;;;;;4791619;29;20030;-88
2021/11/06 07:16:46;;;;;;;21.88;16.52;;;231.20;2252.80;;;;;;4791140;29;20054;-87
2021/11/06 07:19:12;;;;;;;24.02;15.95;;;231.30;2252.80;;;;;;4790631;29;20038;-87
2021/11/06 07:21:38;;;;;;;22.75;16.92;;;231.30;2252.80;;;;;;4807394;29;20055;-89
2021/11/06 07:24:05;;;;;;;29.83;19.50;;;231.30;2252.80;;;;;;4807529;29;20076;-88
2021/11/06 07:26:32;;;;;;;24.45;18.60;;;231.30;2252.80;;;;;;4791272;29;20031;-87
2021/11/06 07:28:58;;;;;;;20.67;15.30;;;231.30;2252.80;;;;;;4808000;29;20439;-87
2021/11/06 07:31:25;;;;;;;20.05;14.95;;;231.20;2252.80;;;;;;4791420;29;20130;-86
2021/11/06 07:33:54;;;;;;;28.75;20.02;;;231.30;2252.80;;;;;;4791439;29;20034;-87
2021/11/06 07:36:20;;;;;;;28.08;17.98;;;231.30;2252.80;;;;;;4791479;29;20035;-86
2021/11/06 07:38:46;;;;;;;29.85;20.33;;;231.30;2252.80;;;;;;4791566;29;20034;-86
2021/11/06 07:41:12;;;;;;;34.53;23.25;;;231.30;2252.80;;;;;;4807665;29;20023;-87
2021/11/06 07:43:39;;;;;;;25.05;19.25;;;256.00;2252.80;;;;;;4791432;29;20096;-89
2021/11/06 07:46:05;;;;;;;20.05;15.75;;;256.00;2252.80;;;;;;4791204;29;20034;-87
2021/11/06 07:48:31;;;;;;;17.90;15.55;;;256.00;2252.80;;;;;;4805859;29;20057;-86
2021/11/06 07:50:57;;;;;;;23.23;19.27;;;256.00;2252.80;;;;;;4807267;29;20493;-86
2021/11/06 07:53:23;;;;;;;24.08;18.52;;;256.00;2252.80;;;;;;4791186;29;20092;-87
2021/11/06 07:55:50;;;;;;;19.98;15.57;;;256.00;2252.80;;;;;;4790973;29;20066;-85
2021/11/06 07:58:15;;;;;;;28.02;16.75;;;231.10;2252.80;;;;;;4791010;29;20065;-86
2021/11/06 08:00:42;;;;;;;24.42;17.10;;;231.30;2252.80;;;;;;4790991;29;20041;-87
2021/11/06 08:03:08;;;;;;;23.40;17.30;;;256.10;2252.80;;;;;;4807029;29;20043;-88
2021/11/06 08:05:34;;;;;;;91.18;45.67;;;256.30;2252.80;;;;;;4807161;29;20038;-86
2021/11/06 08:08:00;;;;;;;25.40;17.08;;;256.40;2252.80;;;;;;4790957;29;20099;-88
2021/11/06 08:10:27;;;;;;;20.85;14.50;;;256.40;2252.80;;;;;;4806871;29;20034;-87
2021/11/06 08:13:02;;;;;;;20.90;15.52;;;256.50;2252.80;;;;;;4790374;29;20389;-87
2021/11/06 08:15:29;;;;;;;21.17;15.13;;;256.60;2252.80;;;;;;4786579;29;20026;-86
2021/11/06 08:17:55;;;;;;;21.63;15.65;;;256.70;2252.80;;;;;;4790530;29;20134;-86
2021/11/06 08:20:25;;;;;;;22.20;14.95;;;256.80;2252.80;;;;;;4806474;29;20031;-86
2021/11/06 08:22:52;;;;;;;23.70;17.10;;;256.90;2252.80;;;;;;4799795;29;20068;-88
2021/11/06 08:25:20;;;;;;;28.10;19.90;;;281.60;2278.40;;;;;;4806304;29;20023;-86
2021/11/06 08:27:54;;;;;;;34.60;20.83;;;281.60;2278.40;;;;;;4806330;29;20485;-84
2021/11/06 08:30:21;;;;;;;26.35;17.58;;;281.80;2278.40;;;;;;4808965;29;20088;-85
2021/11/06 08:32:49;;;;;;;29.10;19.33;;;281.80;2278.40;;;;;;4793525;29;20019;-84
2021/11/06 08:35:15;;;;;;;21.65;14.93;;;281.90;2278.40;;;;;;4794053;29;20031;-86
2021/11/06 08:37:41;;;;;;;18.80;13.77;;;281.80;2278.40;;;;;;4793748;29;20443;-87
2021/11/06 08:40:09;;;;;;;16.08;12.90;;;282.00;2278.40;;;;;;4794087;29;20109;-86
2021/11/06 08:42:35;;;;;;;22.92;16.00;;;281.90;2278.40;;;;;;4793974;29;20038;-87
2021/11/06 08:45:07;;;;;;;28.48;21.17;;;281.90;2278.40;;;;;;4789315;29;20073;-85
2021/11/06 08:47:33;;;;;;;26.20;18.77;;;281.90;2278.40;;;;;;4793932;29;20069;-85
2021/11/06 08:49:59;;;;;;;75.55;43.53;;;281.90;2278.40;;;;;;4786066;29;20030;-85
2021/11/06 08:52:25;;;;;;;41.60;26.25;;;282.10;2278.40;;;;;;4793840;29;20030;-86
2021/11/06 08:54:51;;;;;;;36.45;23.55;;;282.50;2278.40;;;;;;4793526;29;20031;-89
2021/11/06 08:57:20;;;;;;;43.80;25.27;;;307.40;2304.00;;;;;;4794062;29;20042;-89
2021/11/06 08:59:54;;;;;;;24.25;15.48;;;307.60;2304.00;;;;;;4818996;29;20504;-90
2021/11/06 09:02:20;;;;;;;35.70;21.08;;;307.80;2304.00;;;;;;4794364;29;20070;-88
2021/11/06 09:04:49;;;;;;;34.65;21.83;;;332.80;2227.20;;;;;;4794206;29;20073;-89
2021/11/06 09:07:16;;;;;;;24.50;14.45;;;333.00;2252.80;;;;;;4793740;29;20053;-90
2021/11/06 09:09:44;;;;;;;26.42;16.20;;;308.00;2150.40;;;;;;4794505;29;20099;-90
2021/11/06 09:12:10;;;;;;;17.45;12.57;;;307.40;2201.60;;;;;;4793759;29;20034;-89
2021/11/06 09:14:38;;;;;;;128.60;90.47;;;282.50;2201.60;;;;;;4793619;29;20027;-90
2021/11/06 09:17:04;;;;;;;68.80;48.03;;;307.30;2278.40;;;;;;4793240;29;20058;-92
2021/11/06 09:19:29;;;;;;;19.73;15.27;;;307.40;2278.40;;;;;;4793676;29;20023;-89
2021/11/06 09:21:55;;;;;;;102.40;92.55;;;307.40;2252.80;;;;;;4793509;29;20031;-89
2021/11/06 09:24:21;;;;;;;118.55;107.18;;;307.30;2278.40;;;;;;4809639;29;20084;-88
2021/11/06 09:26:47;;;;;;;24.25;20.17;;;307.20;2304.00;;;;;;4793400;29;20031;-91
2021/11/06 09:29:17;;;;;;;48.60;44.08;;;282.50;2278.40;;;;;;4793309;29;20035;-88
2021/11/06 09:31:44;;;;;;;19.90;17.80;;;282.40;2278.40;;;;;;4793437;29;20046;-87
2021/11/06 09:34:11;;;;;;;26.23;20.38;;;282.40;2278.40;;;;;;4809887;29;20035;-91
2021/11/06 09:36:38;;;;;;;19.13;15.52;;;307.20;2304.00;;;;;;4793392;29;20054;-89
2021/11/06 09:39:10;;;;;;;15.20;12.73;;;307.40;2252.80;;;;;;4793700;29;20027;-87
2021/11/06 09:41:37;;;;;;;16.98;13.60;;;307.70;2227.20;;;;;;4800058;29;20503;-91
2021/11/06 09:44:03;;;;;;;136.43;102.47;;;307.90;2201.60;;;;;;4792912;29;20125;-89
2021/11/06 09:46:29;;;;;;;54.40;42.58;;;308.00;2150.40;;;;;;4808176;29;20038;-87
2021/11/06 09:48:54;;;;;;;209.98;185.95;;;307.90;2227.20;;;;;;4790367;29;20035;-86
2021/11/06 09:51:21;;;;;;;27.52;24.52;;;307.90;2201.60;;;;;;4777134;29;20062;-88
2021/11/06 09:53:49;;;;;;;17.33;13.45;;;308.00;2176.00;;;;;;4793052;29;20027;-89
2021/11/06 09:56:23;;;;;;;15.23;13.13;;;307.80;2176.00;;;;;;4792841;29;20031;-93
2021/11/06 09:58:53;;;;;;;22.42;20.05;;;307.60;2227.20;;;;;;4809085;29;20098;-88
2021/11/06 10:01:19;;;;;;;48.28;33.38;;;307.50;2278.40;;;;;;4792642;29;20035;-84
2021/11/06 10:03:45;;;;;;;45.95;30.25;;;307.40;2252.80;;;;;;4792801;29;20077;-89
2021/11/06 10:06:20;;;;;;;30.58;20.90;;;307.40;2252.80;;;;;;4792980;29;20035;-87
2021/11/06 10:08:47;;;;;;;19.88;14.65;;;307.30;2252.80;;;;;;4792908;29;20035;-89
2021/11/06 10:11:15;;;;;;;17.27;12.52;;;307.30;2278.40;;;;;;4792573;29;20095;-87
2021/11/06 10:13:50;;;;;;;19.20;12.07;;;307.20;2304.00;;;;;;4792426;29;20103;-86
2021/11/06 10:16:21;;;;;;;25.13;12.45;;;307.30;2304.00;;;;;;4808269;29;20137;-86
2021/11/06 10:18:47;;;;;;;34.28;21.95;;;307.20;2278.40;;;;;;4792244;29;20081;-85
2021/11/06 10:21:13;;;;;;;15.10;11.30;;;307.20;2304.00;;;;;;4808258;29;20042;-85
2021/11/06 10:23:41;;;;;;;78.53;44.60;;;282.50;2252.80;;;;;;4792137;29;20031;-84
2021/11/06 10:26:26;;;;;;;143.27;76.88;;;282.50;2252.80;;;;;;4806851;29;20120;-85
2021/11/06 10:29:16;;;;;;;100.55;55.13;;;307.20;2252.80;;;;;;4791840;29;20049;-83
2021/11/06 10:31:54;;;;;;;29.20;18.63;;;307.20;2278.40;;;;;;4806737;29;20095;-85
2021/11/06 10:34:21;;;;;;;16.38;11.15;;;282.40;2227.20;;;;;;4807294;29;20038;-86
2021/11/06 10:36:57;;;;;;;23.55;16.45;;;282.30;2252.80;;;;;;4792646;29;20035;-85
2021/11/06 10:39:23;;;;;;;20.27;13.23;;;282.30;2278.40;;;;;;4806968;29;20027;-85
2021/11/06 10:41:49;;;;;;;22.30;13.60;;;282.30;2278.40;;;;;;4791740;29;20034;-93
2021/11/06 10:44:19;;;;;;;28.05;18.58;;;282.50;2278.40;;;;;;4792123;29;20042;-85
2021/11/06 10:46:52;;;;;;;347.88;218.05;;;282.50;2252.80;;;;;;4792078;29;20477;-87
2021/11/06 10:49:42;;;;;;;192.23;92.90;;;307.20;2304.00;;;;;;4792007;29;20027;-86
2021/11/06 10:52:13;;;;;;;232.13;82.55;;;282.50;2252.80;;;;;;4794152;29;20035;-91
2021/11/06 10:54:59;;;;;;;26.77;16.65;;;282.50;2278.40;;;;;;4793008;29;20027;-94
2021/11/06 10:57:26;;;;;;;1413.38;577.63;;;307.20;2304.00;;;;;;4792861;29;20075;-90
2021/11/06 11:00:20;;;;;;;753.80;317.40;;;307.30;2304.00;;;;;;4791907;29;20082;-85
2021/11/06 11:02:46;;;;;;;451.30;164.90;;;307.30;2278.40;;;;;;4807839;29;20035;-94
2021/11/06 11:05:30;;;;;;;1170.07;451.65;;;307.30;2304.00;;;;;;4805220;29;20041;-91
2021/11/06 11:08:15;;;;;;;1635.28;542.92;;;307.20;2304.00;;;;;;4805455;29;20077;-96
2021/11/06 11:10:43;;;;;;;500.67;155.40;;;307.20;2304.00;;;;;;4790175;29;20074;-89
2021/11/06 11:13:14;;;;;;;575.88;164.07;;;307.20;2304.00;;;;;;4791054;29;20125;-93
2021/11/06 11:15:46;;;;;;;160.18;50.28;;;307.20;2304.00;;;;;;4806369;29;20114;-94
2021/11/06 11:18:32;;;;;;;17.92;11.63;;;307.30;2304.00;;;;;;4791576;29;20106;-89
2021/11/06 11:21:17;;;;;;;23.00;14.77;;;307.40;2278.40;;;;;;4791509;29;20034;-87
2021/11/06 11:23:56;;;;;;;411.58;178.68;;;307.50;2304.00;;;;;;4808532;29;20087;-93
2021/11/06 11:26:31;;;;;;;54.25;27.55;;;307.50;2304.00;;;;;;4791767;29;20092;-89
2021/11/06 11:28:58;;;;;;;163.10;77.60;;;307.40;2252.80;;;;;;4773872;30;20092;-93
2021/11/06 11:31:25;;;;;;;38.33;24.23;;;307.40;2304.00;;;;;;4789643;30;20035;-94
2021/11/06 11:33:53;;;;;;;22.13;16.05;;;307.40;2304.00;;;;;;4773291;30;20088;-85
2021/11/06 11:36:22;;;;;;;26.13;16.30;;;307.30;2304.00;;;;;;4789460;30;20106;-90
2021/11/06 11:38:49;;;;;;;76.65;44.72;;;307.20;2304.00;;;;;;4773428;30;20031;-83
2021/11/06 11:41:50;;;;;;;184.10;117.78;;;282.40;2278.40;;;;;;4773891;30;20027;-92
2021/11/06 11:45:00;;;;;;;79.22;53.42;;;282.50;2278.40;;;;;;4780224;30;20036;-87
2021/11/06 11:47:37;;;;;;;34.95;25.77;;;282.50;2278.40;;;;;;4774236;30;20038;-83
2021/11/06 11:50:10;;;;;;;39.78;26.73;;;282.50;2278.40;;;;;;4781842;29;20066;-94
2021/11/06 11:52:42;;;;;;;15.43;13.10;;;282.50;2278.40;;;;;;4790304;29;20096;-89
2021/11/06 11:55:14;;;;;;;24.05;16.00;;;282.40;2278.40;;;;;;4791126;29;20271;-86
2021/11/06 11:58:04;;;;;;;20.85;16.23;;;282.30;2278.40;;;;;;4808464;29;20086;-94
2021/11/06 12:00:30;;;;;;;27.25;20.17;;;282.20;2278.40;;;;;;4806045;29;20058;-93
2021/11/06 12:02:59;;;;;;;22.00;16.75;;;282.20;2278.40;;;;;;4806760;29;20027;-86
2021/11/06 12:05:28;;;;;;;17.85;13.45;;;282.20;2278.40;;;;;;4791385;29;20031;-91
2021/11/06 12:08:12;;;;;;;21.67;12.50;;;282.20;2278.40;;;;;;4791260;29;20088;-85
2021/11/06 12:10:46;;;;;;;19.05;12.77;;;282.20;2278.40;;;;;;4806042;29;20039;-85
2021/11/06 12:13:27;;;;;;;;;;;282.20;2278.40;;;;;;4791553;29;20031;-88
2021/11/06 12:15:53;;;;;;;20.50;15.30;;;282.30;2278.40;;;;;;4801844;29;20008;-84
2021/11/06 12:18:37;;;;;;;31.73;15.32;;;282.30;2278.40;;;;;;4807657;29;20073;-83
2021/11/06 12:21:15;;;;;;;22.55;16.60;;;282.30;2278.40;;;;;;4805900;29;20125;-88
2021/11/06 12:23:42;;;;;;;42.53;33.63;;;282.40;2278.40;;;;;;4805856;29;20433;-86
2021/11/06 12:26:20;;;;;;;39.85;29.92;;;282.30;2278.40;;;;;;4795474;29;20118;-92
2021/11/06 12:28:48;;;;;;;22.58;18.83;;;282.30;2278.40;;;;;;4791550;29;20031;-91
2021/11/06 12:31:23;;;;;;;19.40;16.17;;;282.30;2278.40;;;;;;4807277;29;20053;-85
2021/11/06 12:33:50;;;;;;;20.63;15.93;;;282.40;2278.40;;;;;;4807893;29;20019;-84
2021/11/06 12:36:21;;;;;;;22.95;15.63;;;282.50;2278.40;;;;;;4791373;29;20493;-93
2021/11/06 12:38:47;;;;;;;17.25;13.93;;;307.20;2304.00;;;;;;4806133;29;20027;-84
2021/11/06 12:41:14;;;;;;;21.48;16.75;;;307.30;2304.00;;;;;;4791985;29;20026;-92
2021/11/06 12:43:50;;;;;;;18.80;15.27;;;307.30;2304.00;;;;;;4791469;29;20031;-93
2021/11/06 12:46:27;;;;;;;21.88;17.77;;;307.30;2304.00;;;;;;4819042;29;20089;-86
2021/11/06 12:49:00;;;;;;;25.08;17.50;;;307.30;2304.00;;;;;;4794442;29;20485;-85
2021/11/06 12:51:41;;;;;;;20.73;16.20;;;307.30;2304.00;;;;;;4806927;29;20133;-93
2021/11/06 12:54:10;;;;;;;26.30;17.15;;;307.40;2304.00;;;;;;4808843;29;20034;-93
2021/11/06 12:56:37;;;;;;;26.20;18.88;;;307.30;2304.00;;;;;;4806796;29;20031;-95
2021/11/06 12:59:12;;;;;;;95.82;42.67;;;307.40;2304.00;;;;;;4805864;29;20034;-94
2021/11/06 13:01:59;;;;;;;44.83;24.17;;;307.40;2304.00;;;;;;4797075;29;20031;-93
2021/11/06 13:04:29;;;;;;;37.17;21.00;;;307.40;2304.00;;;;;;4814314;29;20322;-94
2021/11/06 13:06:55;;;;;;;28.77;18.42;;;307.40;2304.00;;;;;;4797195;29;20058;-94
2021/11/06 13:09:27;;;;;;;26.35;18.33;;;307.20;2304.00;;;;;;4796607;29;20039;-95
2021/11/06 13:11:56;;;;;;;23.63;18.45;;;307.40;2304.00;;;;;;4795763;29;20188;-94
2021/11/06 13:14:39;;;;;;;31.13;21.55;;;307.40;2304.00;;;;;;4794854;29;20122;-95
2021/11/06 13:17:26;;;;;;;33.97;23.63;;;307.30;2304.00;;;;;;4811941;29;20054;-94
2021/11/06 13:19:52;;;;;;;29.27;17.98;;;307.30;2304.00;;;;;;4816951;29;20034;-85
2021/11/06 13:22:26;;;;;;;24.17;16.23;;;307.20;2304.00;;;;;;4819593;29;20553;-95
2021/11/06 13:25:16;;;;;;;34.55;26.10;;;307.20;2304.00;;;;;;4821617;29;20070;-84
2021/11/06 13:28:08;;;;;;;29.88;23.60;;;307.30;2304.00;;;;;;4822443;29;20027;-95
2021/11/06 13:30:45;;;;;;;63.22;45.25;;;307.30;2304.00;;;;;;4811928;29;20041;-85
2021/11/06 13:33:17;;;;;;;38.20;25.83;;;307.20;2304.00;;;;;;4817173;29;20011;-95
2021/11/06 13:36:21;;;;;;;30.88;19.73;;;307.20;2304.00;;;;;;4834110;29;20023;-87
2021/11/06 13:38:56;;;;;;;26.65;18.17;;;307.20;2304.00;;;;;;4821894;29;20117;-94
2021/11/06 13:41:48;;;;;;;25.60;17.23;;;282.50;2278.40;;;;;;4807443;29;20039;-94
2021/11/06 13:44:23;;;;;;;23.80;17.58;;;282.40;2278.40;;;;;;4815342;29;20022;-92
2021/11/06 13:46:56;;;;;;;29.65;21.77;;;282.40;2278.40;;;;;;4824323;29;20035;-95
2021/11/06 13:49:42;;;;;;;26.08;19.17;;;282.30;2278.40;;;;;;4809509;29;20038;-95
2021/11/06 13:52:10;;;;;;;23.10;17.80;;;282.30;2278.40;;;;;;4812371;29;20042;-95
2021/11/06 13:54:45;;;;;;;26.17;19.67;;;282.40;2278.40;;;;;;4833766;29;20026;-95
2021/11/06 13:57:22;;;;;;;34.30;23.15;;;282.40;2278.40;;;;;;4818191;29;20126;-95
2021/11/06 14:00:11;;;;;;;30.63;24.30;;;282.30;2278.40;;;;;;4806369;29;20050;-88
2021/11/06 14:02:42;;;;;;;30.73;22.38;;;282.40;2278.40;;;;;;4817111;29;20088;-95
2021/11/06 14:05:22;;;;;;;43.90;30.10;;;282.40;2278.40;;;;;;4812807;29;20029;-92
2021/11/06 14:07:50;;;;;;;36.75;26.55;;;282.40;2278.40;;;;;;4807129;29;20018;-95